Portada
METAR-TAF:

METAR-TAF

Aeropuertos :

Aeropuerto de Reggio di Calabria

Regio de Calabria, Italia

latitud: 38-04N, longitud: 015-39E, altitud: 11 m

Observación

El informe se hizo hace 20 minutos, a las 21:20 UTC
Viento 6 kt del noreste
Temperatura 9°C
Humedad 71%
Presión 1030 hPa
Visibilidad 10 km o más

METAR: LICR 032120Z AUTO 05006KT 9999 NCD 09/04 Q1030

Hora: 22:40 (21:40 UTC)

Pronóstico

El informe se hizo hace 4 horas y 40 minutos, a las 17:00 UTC
Pronóstico válido del 03 a las 18 UTC al 04 a las 18 UTC
Viento 5 kt con dirección variable
Visibilidad 10 km o más
Nubes dispersas a una altura de 3000 ft

TAF: LICR 031700Z 0318/0418 VRB05KT 9999 SCT030

Observaciones y pronósticos meteorológicos de más de 4000 aeropuertos (mensajes METAR y TAF).

Los puntos amarillos y rojos representan las estaciones disponibles.

Ponga el ratón en el punto deseado para ver el nombre de la estación.

Haga clic para ver las observaciones y los pronósticos meteorológicos.

Para cambiar el mapa : haga clic en los botones verdes con una cruz de color negro para hacer un zoom, en el botón verde con un guión para alejar o en las flechas verdes para mapas adyacentes.


METAR-TAF: